createdAt,value
2022-12-26T00:00:12.077Z,4.52
2022-12-26T00:05:10.209Z,4.59
2022-12-26T00:10:08.764Z,4.47
2022-12-26T00:15:06.926Z,4.34
2022-12-26T00:20:08.127Z,4.33
2022-12-26T00:25:06.476Z,4.25
2022-12-26T00:30:04.760Z,4.13
2022-12-26T00:35:02.813Z,3.69
2022-12-26T00:40:02.009Z,3.42
2022-12-26T00:44:59.941Z,3.35
2022-12-26T00:50:12.517Z,3.23
2022-12-26T00:55:13.751Z,3.13
2022-12-26T01:00:19.712Z,3.16
2022-12-26T01:05:17.710Z,3.10
2022-12-26T01:10:17.069Z,3.06
2022-12-26T01:15:15.125Z,3.02
2022-12-26T01:20:13.183Z,3.04
2022-12-26T01:25:11.859Z,2.81
2022-12-26T01:30:11.772Z,2.61
2022-12-26T01:35:10.031Z,2.53
2022-12-26T01:40:08.505Z,2.61
2022-12-26T01:45:08.633Z,2.55
2022-12-26T01:50:15.610Z,2.63
2022-12-26T01:55:15.711Z,2.60
2022-12-26T02:00:14.229Z,2.74
2022-12-26T02:05:30.814Z,2.75
2022-12-26T02:10:30.072Z,2.56
2022-12-26T02:15:28.414Z,2.42
2022-12-26T02:20:28.528Z,2.51
2022-12-26T02:25:40.197Z,2.58
2022-12-26T02:30:42.964Z,2.52
2022-12-26T02:35:48.288Z,2.57
2022-12-26T02:40:52.455Z,2.57
2022-12-26T02:46:13.348Z,2.66
2022-12-26T02:51:44.749Z,2.57
2022-12-26T02:57:01.836Z,2.53
2022-12-26T03:02:19.897Z,2.44
2022-12-26T03:07:39.244Z,2.38
2022-12-26T03:12:57.533Z,2.35
2022-12-26T03:17:59.249Z,2.32
2022-12-26T03:23:01.579Z,2.25
2022-12-26T03:27:59.423Z,2.21
2022-12-26T03:32:59.247Z,2.15
2022-12-26T03:37:58.032Z,2.10
2022-12-26T03:43:18.194Z,2.06
2022-12-26T03:48:38.545Z,2.00
2022-12-26T03:53:56.117Z,2.00
2022-12-26T03:59:16.202Z,1.97
2022-12-26T04:04:34.110Z,1.94
2022-12-26T04:10:04.688Z,1.95
2022-12-26T04:15:22.658Z,1.96
2022-12-26T04:20:26.003Z,1.92
2022-12-26T04:25:48.475Z,1.88
2022-12-26T04:31:09.146Z,1.92
2022-12-26T04:36:28.752Z,1.95
2022-12-26T04:41:45.536Z,2.01
2022-12-26T04:46:45.066Z,2.01
2022-12-26T04:51:44.279Z,1.99
2022-12-26T04:56:42.116Z,1.96
2022-12-26T05:01:53.841Z,1.99
2022-12-26T05:07:10.734Z,1.91
2022-12-26T05:12:10.448Z,1.92
2022-12-26T05:17:25.988Z,2.00
2022-12-26T05:22:43.721Z,1.89
2022-12-26T05:28:01.345Z,1.89
2022-12-26T05:33:16.941Z,1.91
2022-12-26T05:38:16.146Z,1.80
2022-12-26T05:43:13.945Z,1.85
2022-12-26T05:48:14.289Z,1.88
2022-12-26T05:53:12.501Z,1.98
2022-12-26T05:58:11.704Z,1.98
2022-12-26T06:03:09.646Z,1.97
2022-12-26T06:08:07.591Z,2.03
2022-12-26T06:13:05.416Z,2.00
2022-12-26T06:18:04.674Z,2.26
2022-12-26T06:23:02.514Z,2.51
2022-12-26T06:28:00.429Z,3.64
2022-12-26T06:32:58.320Z,4.67
2022-12-26T06:37:57.517Z,5.55
2022-12-26T06:42:55.352Z,6.31
2022-12-26T06:47:53.889Z,6.90
2022-12-26T06:52:51.686Z,7.17
2022-12-26T06:57:52.504Z,7.53
2022-12-26T07:02:51.520Z,7.91
2022-12-26T07:07:51.597Z,8.65
2022-12-26T07:12:50.837Z,8.81
2022-12-26T07:17:48.642Z,9.00
2022-12-26T07:22:46.485Z,9.42
2022-12-26T07:27:44.414Z,9.70
2022-12-26T07:32:43.656Z,9.76
2022-12-26T07:37:41.519Z,10.12
2022-12-26T07:42:40.781Z,9.41
2022-12-26T07:47:38.638Z,10.21
2022-12-26T07:52:37.885Z,10.95
2022-12-26T07:57:48.450Z,10.63
2022-12-26T08:02:48.562Z,11.34
2022-12-26T08:07:49.232Z,12.22
2022-12-26T08:12:47.080Z,13.11
2022-12-26T08:17:45.031Z,13.80
2022-12-26T08:22:42.895Z,14.36
2022-12-26T08:27:42.333Z,14.31
2022-12-26T08:32:42.578Z,14.86
2022-12-26T08:37:43.980Z,15.52
2022-12-26T08:42:56.158Z,16.17
2022-12-26T08:48:03.075Z,16.46
2022-12-26T08:53:00.879Z,16.34
2022-12-26T08:58:00.257Z,17.36
2022-12-26T09:02:58.721Z,17.75
2022-12-26T09:07:56.731Z,17.85
2022-12-26T09:12:54.631Z,18.40
2022-12-26T09:17:54.138Z,18.91
2022-12-26T09:22:52.012Z,19.00
2022-12-26T09:27:55.594Z,18.20
2022-12-26T09:32:58.146Z,18.81
2022-12-26T09:37:56.113Z,19.26
2022-12-26T09:43:07.297Z,19.38
2022-12-26T09:48:12.895Z,19.81
2022-12-26T09:53:14.227Z,20.19
2022-12-26T09:58:16.276Z,19.88
2022-12-26T10:03:15.581Z,19.64
2022-12-26T10:08:23.489Z,19.05
2022-12-26T10:13:26.884Z,19.82
2022-12-26T10:18:36.137Z,20.30
2022-12-26T10:23:34.754Z,19.96
2022-12-26T10:28:35.562Z,20.10
2022-12-26T10:33:38.320Z,20.18
2022-12-26T10:38:39.961Z,20.34
2022-12-26T10:43:42.905Z,20.02
2022-12-26T10:48:42.223Z,20.29
2022-12-26T10:53:42.819Z,20.22
2022-12-26T10:58:41.169Z,20.12
2022-12-26T11:03:54.693Z,20.17
2022-12-26T11:08:54.772Z,20.51
2022-12-26T11:14:01.321Z,20.96
2022-12-26T11:19:00.522Z,21.12
2022-12-26T11:24:15.527Z,20.87
2022-12-26T11:29:15.637Z,20.82
2022-12-26T11:34:18.433Z,20.25
2022-12-26T11:39:22.154Z,18.65
2022-12-26T11:44:23.850Z,18.94
2022-12-26T11:49:28.696Z,19.46
2022-12-26T11:54:28.345Z,19.42
2022-12-26T11:59:27.699Z,20.05
2022-12-26T12:04:25.789Z,20.49
2022-12-26T12:09:29.729Z,20.47
2022-12-26T12:14:35.825Z,20.80
2022-12-26T12:19:39.936Z,20.61
2022-12-26T12:24:43.917Z,20.73
2022-12-26T12:29:51.504Z,20.33
2022-12-26T12:35:02.084Z,19.52
2022-12-26T12:40:02.157Z,19.30
2022-12-26T12:45:06.995Z,18.65
2022-12-26T12:50:11.144Z,18.17
2022-12-26T12:55:26.988Z,18.98
2022-12-26T13:00:28.222Z,19.13
2022-12-26T13:05:31.833Z,18.67
2022-12-26T13:10:33.196Z,17.88
2022-12-26T13:15:34.960Z,18.20
2022-12-26T13:20:38.970Z,17.97
2022-12-26T13:25:39.013Z,17.16
2022-12-26T13:30:39.100Z,16.17
2022-12-26T13:35:53.949Z,15.35
2022-12-26T13:40:55.179Z,15.08
2022-12-26T13:45:57.393Z,14.65
2022-12-26T13:50:56.764Z,14.29
2022-12-26T13:55:55.967Z,13.62
2022-12-26T14:00:57.488Z,13.41
2022-12-26T14:06:00.659Z,13.09
2022-12-26T14:11:04.420Z,12.89
2022-12-26T14:16:06.918Z,12.76
2022-12-26T14:21:18.380Z,12.60
2022-12-26T14:26:22.459Z,12.43
2022-12-26T14:31:26.470Z,12.28
2022-12-26T14:36:34.218Z,12.10
2022-12-26T14:42:12.982Z,11.92
2022-12-26T14:47:12.461Z,11.77
2022-12-26T14:52:34.743Z,11.59
2022-12-26T14:57:43.885Z,11.43
2022-12-26T15:02:44.585Z,11.20
2022-12-26T15:08:00.120Z,10.89
2022-12-26T15:13:15.645Z,10.82
2022-12-26T15:18:28.287Z,10.64
2022-12-26T15:23:37.385Z,10.56
2022-12-26T15:28:58.353Z,10.40
2022-12-26T15:34:00.417Z,10.14
2022-12-26T15:39:02.952Z,10.13
2022-12-26T15:44:08.486Z,10.00
2022-12-26T15:49:21.139Z,9.81
2022-12-26T15:54:26.502Z,9.74
2022-12-26T15:59:38.887Z,9.65
2022-12-26T16:04:40.078Z,9.43
2022-12-26T16:09:45.586Z,9.25
2022-12-26T16:14:44.111Z,9.03
2022-12-26T16:19:42.910Z,8.95
2022-12-26T16:24:43.767Z,8.80
2022-12-26T16:29:45.871Z,8.60
2022-12-26T16:34:46.263Z,8.39
2022-12-26T16:39:45.528Z,8.27
2022-12-26T16:44:45.630Z,8.10
2022-12-26T16:49:47.150Z,7.97
2022-12-26T16:54:46.348Z,8.07
2022-12-26T16:59:48.508Z,7.93
2022-12-26T17:04:55.507Z,7.84
2022-12-26T17:10:00.146Z,7.66
2022-12-26T17:14:59.681Z,7.63
2022-12-26T17:19:59.163Z,7.67
2022-12-26T17:25:12.022Z,7.59
2022-12-26T17:30:28.353Z,7.51
2022-12-26T17:35:27.380Z,7.41
2022-12-26T17:40:28.136Z,7.27
2022-12-26T17:45:28.566Z,7.23
2022-12-26T17:50:30.525Z,7.20
2022-12-26T17:55:28.579Z,7.11
2022-12-26T18:00:28.853Z,7.03
2022-12-26T18:05:26.813Z,7.05
2022-12-26T18:10:26.103Z,6.93
2022-12-26T18:15:24.756Z,6.95
2022-12-26T18:20:25.021Z,6.87
2022-12-26T18:25:24.695Z,6.83
2022-12-26T18:30:24.115Z,6.79
2022-12-26T18:35:22.552Z,6.73
2022-12-26T18:40:30.697Z,6.61
2022-12-26T18:45:28.777Z,6.44
2022-12-26T18:50:27.393Z,6.32
2022-12-26T18:55:25.924Z,6.28
2022-12-26T19:00:25.408Z,6.23
2022-12-26T19:05:24.082Z,6.16
2022-12-26T19:10:23.585Z,6.08
2022-12-26T19:15:21.393Z,6.03
2022-12-26T19:20:21.452Z,5.85
2022-12-26T19:25:20.257Z,5.77
2022-12-26T19:30:19.148Z,5.63
2022-12-26T19:35:17.109Z,5.57
2022-12-26T19:40:22.929Z,5.42
2022-12-26T19:45:21.510Z,5.32
2022-12-26T19:50:19.340Z,5.33
2022-12-26T19:55:18.772Z,5.31
2022-12-26T20:00:16.829Z,5.35
2022-12-26T20:05:14.767Z,5.32
2022-12-26T20:10:12.684Z,5.32
2022-12-26T20:15:12.200Z,5.35
2022-12-26T20:20:10.502Z,5.33
2022-12-26T20:25:09.921Z,5.30
2022-12-26T20:30:09.458Z,5.26
2022-12-26T20:35:09.488Z,5.30
2022-12-26T20:40:07.897Z,5.24
2022-12-26T20:45:06.217Z,5.28
2022-12-26T20:50:04.053Z,5.15
2022-12-26T20:55:03.455Z,5.26
2022-12-26T21:00:01.379Z,5.20
2022-12-26T21:05:00.686Z,4.90
2022-12-26T21:09:58.565Z,4.59
2022-12-26T21:14:57.840Z,4.67
2022-12-26T21:19:55.663Z,4.62
2022-12-26T21:24:53.472Z,4.80
2022-12-26T21:29:51.310Z,4.65
2022-12-26T21:34:50.606Z,4.54
2022-12-26T21:39:49.724Z,4.67
2022-12-26T21:44:47.633Z,4.76
2022-12-26T21:49:45.634Z,4.84
2022-12-26T21:55:02.406Z,4.54
2022-12-26T22:00:00.939Z,4.49
2022-12-26T22:04:59.156Z,4.32
2022-12-26T22:09:58.330Z,4.03
2022-12-26T22:14:56.183Z,3.81
2022-12-26T22:19:54.416Z,3.74
2022-12-26T22:24:52.289Z,3.78
2022-12-26T22:29:54.832Z,3.55
2022-12-26T22:34:52.701Z,3.65
2022-12-26T22:39:50.528Z,3.65
2022-12-26T22:44:48.374Z,3.59
2022-12-26T22:49:48.496Z,3.55
2022-12-26T22:54:46.615Z,3.60
2022-12-26T23:00:11.410Z,3.62
2022-12-26T23:05:07.644Z,3.65
2022-12-26T23:10:06.065Z,3.70
2022-12-26T23:15:04.129Z,3.67
2022-12-26T23:20:22.286Z,3.69
2022-12-26T23:25:21.680Z,3.84
2022-12-26T23:30:19.544Z,3.92
2022-12-26T23:35:17.615Z,3.92
2022-12-26T23:40:16.552Z,3.91
2022-12-26T23:45:16.050Z,3.88
2022-12-26T23:50:14.882Z,3.76
2022-12-26T23:55:12.883Z,3.66
